Regional Weather Synopsis
Issued by NWS Denver/Boulder, CO

Home | Current Version | Previous Version | Text Only | Print | Product List | Glossary On
Versions: 1 2 3 4 5 6 7 8 9 10 11 12 13 14 15 16 17 18 19 20 21 22 23 24 25 26 27 28 29 30 31 32 33 34 35 36 37 38 39 40 41 42 43 44 45 46 47 48 49 50
558
NZUS99 KBOU 211227
SYNBOU

Hot-Air Balloon Forecast for Colorado
National Weather Service Denver/Boulder, Colorado
0625 MDT Sunday, April 21, 2019


* * * * * Northeast Colorado * * * * *

METAR KFNL 211156Z AUTO 05003KT 10SM FEW070 SCT085 15/01 A2979 RMK AO2
       RAB02E19B35E49 SLP033 P0000 60000 T01500006 10178 20111
       50012
METAR KFNL 211056Z AUTO 02007KT 10SM OVC085 15/01 A2981 RMK AO2 SLP038
       T01500011
METAR KFNL 210956Z AUTO 30011KT 10SM OVC090 16/01 A2978 RMK AO2 SLP023
       T01610006

METAR KGXY 211156Z AUTO 28011KT 10SM -RA FEW035 SCT047 BKN060 15/03
       A2981 RMK AO2 RAB52 SLP055 P0000 60000 T01500028 10189 20144
       51027
METAR KGXY 211056Z AUTO VRB05KT 10SM FEW085 16/01 A2979 RMK AO2 PK WND
       30026/0957 RAB07E18 SLP044 P0000 T01610011
METAR KGXY 210956Z AUTO 30019G26KT 10SM BKN065 BKN080 18/01 A2978 RMK
       AO2 PK WND 30026/0956 SLP036 T01780011

METAR KLMO 211215Z AUTO 25005KT 10SM SCT110 13/01 A2983 RMK AO2
       T01310008
METAR KLMO 211155Z AUTO 04004KT 10SM BKN100 15/00 A2981 RMK AO2
       T01490004
METAR KLMO 211135Z AUTO 02005KT 10SM OVC100 16/00 A2981 RMK AO2
       T01610000

METAR KBDU 211213Z AUTO 00000KT 10SM SCT100 13/00 A2982 RMK AO2
METAR KBDU 211154Z AUTO 20003KT 10SM OVC100 13/01 A2982 RMK AO2
METAR KBDU 211136Z AUTO 00000KT 10SM OVC090 14/00 A2981 RMK AO2

METAR KEIK 211218Z AUTO 00000KT 10SM SCT090 11/01 A2986 RMK AO2
       T01140007
METAR KEIK 211154Z AUTO 00000KT 10SM BKN090 14/00 A2985 RMK AO2
       T01400003
METAR KEIK 211136Z AUTO 06008KT 10SM OVC090 15/00 A2984 RMK AO2
       T01500000

KBJC 211137Z 2112/2212 05010KT P6SM VCSH SCT100 BKN150
     FM211700 02012KT P6SM SCT070 BKN120
     FM211900 01016G26KT P6SM BKN070
      TEMPO 2119/2122 -SHRA BKN050
     FM212200 33014KT P6SM -SHRA SCT015 BKN025 PROB30 2122/2202
      -TSRA BKN025CB
     FM220200 01012KT P6SM -SHRA BKN012 OVC024
     FM220700 02012KT 5SM -SHRA BKN006 OVC012
METAR KBJC 211154Z AUTO 06003KT 10SM CLR 13/00 A2983 RMK AO2
METAR KBJC 211145Z 05005KT 30SM BKN120 13/00 A2983
METAR KBJC 211154Z AUTO 06003KT 10SM CLR 13/00 A2983 RMK AO2

KDEN 211137Z 2112/2218 34010KT P6SM VCSH SCT070 BKN120
      TEMPO 2114/2117 FEW080 SCT150
     FM211700 03012KT P6SM SCT060 BKN100
     FM211900 03014G24KT P6SM BKN060 OVC100
      TEMPO 2119/2122 -SHRA BKN050
     FM212200 35018G28KT P6SM -SHRA SCT015 BKN035 PROB30 2122/2202
      -TSRA BKN025CB
     FM220200 01014G22KT P6SM -SHRA BKN015 OVC025
     FM220700 03012KT 5SM -SHRA BR BKN009 OVC018
     FM221500 05010KT P6SM SCT007 BKN015 OVC025
METAR KDEN 211153Z 36010KT 10SM FEW060 BKN100 BKN220 12/03 A2981 RMK AO2
       PK WND 34026/1055 SLP028 SHRA DSNT N 60000 T01170028 10161
       20117 51014
METAR KDEN 211053Z 34018KT 10SM FEW060 FEW070 BKN095 14/01 A2980 RMK AO2
       PK WND 36026/1012 RAB11E32 SLP019 P0000 T01440006
SPECI KDEN 211020Z 34012G23KT 10SM -RA BKN070 OVC100 16/01 A2980 RMK AO2
       PK WND 36026/1012 RAB11 P0000 T01610006

METAR KFTG 211215Z AUTO 34008KT 10SM BKN100 11/03 A2982 RMK AO2
       T01050031
METAR KFTG 211154Z AUTO 32008KT 10SM SCT100 12/03 A2982 RMK AO2
       T01190030
METAR KFTG 211136Z AUTO 34012KT 10SM CLR 13/03 A2982 RMK AO2
       T01330028

KBKF 210902Z 2109/2215 21009KT 9999 FEW100 BKN200 QNH2976INS
      BECMG 2114/2115 22009KT 9999 SCT100 BKN200 QNH2978INS
      BECMG 2118/2119 03012G18KT 8000 -SHRA BKN080 OVC120
      QNH2979INS
      TEMPO 2119/2123 VRB25G35KT 6000 -TSRA OVC060CB
      BECMG 2202/2203 03009KT 4800 BR BKN009 QNH3000INS
      BECMG 2210/2211 03009KT 6000 -SHRA BR BKN003 QNH3007INS
      TX20/2121Z TN05/2113Z
METAR KBKF 211158Z 36007KT 10SM FEW060 SCT100 BKN180 11/02 A2983 RMK
       AO2A SLP042 T01090022 10155 20092 52013
METAR KBKF 211058Z 35012KT 10SM SCT060 BKN100 12/00 A2980 RMK AO2A
       SLP024 T01201002

KAPA 211137Z 2112/2212 32008KT P6SM VCSH FEW060 BKN090 BKN150
      TEMPO 2113/2117 24008KT FEW080 SCT150
     FM211700 02012KT P6SM SCT060 BKN120
     FM211900 01014G22KT P6SM BKN070 OVC100
      TEMPO 2119/2122 -SHRA BKN050
     FM212200 01012G20KT P6SM -SHRA SCT015 BKN025 PROB30 2122/2202
      -TSRA BKN025CB
     FM220200 01012KT P6SM -SHRA BKN014 OVC025
     FM220700 03012KT 5SM -SHRA BKN007 OVC014
METAR KAPA 211153Z 01009KT 10SM FEW070 SCT100 SCT200 12/00 A2983 RMK AO2
       SLP047 SHRA DSNT N T01170000 10150 20094 53011
METAR KAPA 211053Z 32005KT 10SM FEW060 BKN095 BKN120 13/M02 A2981 RMK
       AO2 SLP034 T01281017
METAR KAPA 210953Z 24008KT 10SM SCT110 SCT140 BKN200 10/M02 A2979 RMK
       AO2 SLP031 T01001017

METAR KMNH 211211Z AUTO 34006KT 10SM CLR 05/M03 A2990 RMK AO2
METAR KMNH 211154Z AUTO 32011KT 10SM CLR 05/M03 A2989 RMK AO2
METAR KMNH 211130Z AUTO 31006KT 10SM CLR 05/M03 A2988 RMK AO2


METAR KSTK 211210Z AUTO 33012KT 10SM BKN100 BKN120 14/06 A2970 RMK
       AO2
METAR KSTK 211155Z AUTO 33014KT 10SM SCT060 BKN100 OVC120 14/06 A2971
       RMK AO2
METAR KSTK 211135Z AUTO 34017KT 10SM -RA SCT070 BKN080 OVC095 14/06
       A2971 RMK AO2

METAR KAKO 211153Z AUTO 36021KT 10SM OVC100 13/04 A2971 RMK AO2 PK WND
       35028/1148 SLP006 T01280039 10172 20128 51011
METAR KAKO 211053Z AUTO 32015G23KT 10SM CLR 14/02 A2970 RMK AO2 SLP999
       T01390017
METAR KAKO 210953Z AUTO 23006G19KT 10SM FEW065 BKN090 OVC100 15/01 A2971
       RMK AO2 WSHFT 0901 SLP002 T01500006

METAR KLIC 211155Z AUTO 28009KT 10SM CLR 08/00 A2977 RMK AO2 SLP023
       T00780000 10189 20072 53008
METAR KLIC 211055Z AUTO 32010KT 10SM CLR 07/01 A2976 RMK AO2 SLP013
       T00720006
METAR KLIC 210955Z AUTO 28008KT 10SM CLR 08/01 A2975 RMK AO2 SLP008
       T00830006

METAR KHEQ 211210Z AUTO 29007G20KT 10SM CLR 12/06 A2969 RMK AO2
METAR KHEQ 211150Z AUTO 34013KT 10SM CLR 12/06 A2964 RMK AO2
METAR KHEQ 211130Z AUTO 00000KT 10SM CLR 12/07 A2967 RMK AO2


METAR K2V5 211215Z AUTO 31013KT 10SM CLR 12/03 A2965 RMK AO2
METAR K2V5 211155Z AUTO 31012KT 10SM CLR 12/02 A2965 RMK AO2
METAR K2V5 211135Z AUTO 30012KT 10SM CLR 12/02 A2964 RMK AO2

METAR KITR 211153Z AUTO 27010KT 10SM CLR 09/00 A2967 RMK AO2 SLP997
       T00940000 10189 20078 53004
METAR KITR 211053Z AUTO 28009KT 10SM CLR 09/M01 A2966 RMK AO2 SLP992
       T00941006
METAR KITR 210953Z AUTO 27010KT 10SM CLR 12/M01 A2965 RMK AO2 SLP987
       T01171011

Sunrise/Sunset for 04/21/2019
Fort Collins - 06:12:43 MDT / 19:45:15 MDT
Denver       - 06:13:34 MDT / 19:43:33 MDT
Sterling     - 06:05:09 MDT / 19:37:59 MDT

Denver/Boulder (KFTG) 04/21/19 12:14 UTC
Radar VAD winds      Height      Dir/Spd(kt)
                  20000 FT MSL...228/007
                  18000 FT MSL...219/020
                  17000 FT MSL...257/017
                  16800 FT MSL...262/014
                  16000 FT MSL...261/014
                  15000 FT MSL...269/017
                  14600 FT MSL...283/023
                  14000 FT MSL...289/023
                  13000 FT MSL...288/011
                   8100 FT MSL...319/001
                   8000 FT MSL...257/001

Denver/Boulder Aviation Discussion
Issued at 1110 UTC Sunday, April 21, 2019

.AVIATION...(For the 12Z TAFS through 12Z Monday morning)
Issued at 510 AM MDT Sun Apr 21 2019
Spotty rain showers have developed over KDEN in the past half hour
as a weak northerly surge of surface winds moves down the I-25
corridor. At higher levels, satellite imagery shows moisture
moving northward with drier air coming up from southeast Colorado.
This should clear things out for a couple hours during the mid and
late morning. Winds will be westerly to northerly through midday.
Later this afternoon ceilings the next upper level disturbance
will arrive from the south with lowering ceilings and increasing
chances of rain showers. Isolated embedded thunderstorms will also
be possible. A surface cold front will also move down from the
north with gusty north winds through a good portion of the
afternoon. Ceiling should remain above 4000-5000 feet AGL during
the afternoon hours. By 6 PM this evening ceilings will begin
coming down further as ongoing upslope flow saturates the airmass
and rain showers continue developing. MVFR and IFR ceilings should
be expected overnight as light to moderate rain continues. Winds
will be northerly overnight.


* * * * * Southeast Colorado * * * * *

METAR K4BM 211213Z AUTO 27006KT 10SM OVC090 00/M07 A3009 RMK AO2 LTG
       DSNT NW
METAR K4BM 211154Z AUTO 26007KT 10SM SCT090 00/M07 A3009 RMK AO2 LTG
       DSNT NW
METAR K4BM 211136Z AUTO 28007KT 10SM CLR 00/M07 A3009 RMK AO2 LTG DSNT
       NW

METAR KAFF 211158Z AUTO 35007KT 10SM CLR 11/M05 A2983 RMK AO2 SLP026
       T01111050 10145 20096 53004
METAR KAFF 211058Z AUTO 36012G17KT 10SM CLR 11/M05 A2982 RMK AO2 PK WND
       29026/15 SLP018 T01091048

KCOS 211137Z 2112/2212 32012G22KT P6SM FEW100 SCT150
     FM211500 36014KT P6SM FEW070 SCT150
     FM211900 14010KT P6SM VCTS SCT070CB BKN150
     FM212000 32015G30KT P6SM VCTS SCT080CB BKN120
     FM212300 36015G34KT P6SM VCTS SCT080CB BKN120
     FM220600 35012G22KT P6SM SCT040 BKN080
     FM221000 01011KT P6SM SCT015 BKN020
METAR KCOS 211154Z 32010G19KT 10SM FEW150 13/M04 A2983 RMK AO2 SLP024
       T01331044 10156 20106 55000
METAR KCOS 211054Z 30016G23KT 10SM FEW160 15/M05 A2981 RMK AO2 PK WND
       31027/0956 SLP011 T01501050
METAR KCOS 210954Z 30014G20KT 10SM FEW100 14/M05 A2981 RMK AO2 SLP010
       T01441050

METAR KABH 211156Z AUTO 01009KT A2981 RMK AO2 SLPNO 53004 $
METAR KABH 211056Z AUTO 35005KT A2980 RMK AO2 SLPNO $
METAR KABH 210956Z AUTO 36007KT A2979 RMK AO2 SLPNO $

METAR KFLY 211215Z AUTO 33008KT 10SM CLR 09/M05 A2987 RMK AO2
       T00891053
METAR KFLY 211155Z AUTO 32010KT 10SM CLR 09/M05 A2986 RMK AO2 T00911054
       10135 20073
METAR KFLY 211135Z AUTO 31010KT 10SM CLR 09/M05 A2986 RMK AO2
       T00881052

METAR KFCS 211158Z AUTO 35003KT 10SM CLR 11/M04 A2981 RMK AO2 SLP050
       T01121041 10153 20083 53003 $
METAR KFCS 211058Z AUTO 00000KT 10SM CLR 11/M05 A2980 RMK AO2 SLP047
       T01141047 $
METAR KFCS 210958Z AUTO 00000KT 10SM CLR 10/M03 A2980 RMK AO2 SLP042
       T01021031 $

KPUB 211137Z 2112/2212 30011KT P6SM FEW150 SCT250
     FM212000 30020G30KT P6SM SCT250
     FM212200 34015G32KT P6SM SCT100 BKN150
     FM220200 02018G28KT P6SM SCT050 BKN100
     FM221000 07008KT P6SM SCT020 BKN030
METAR KPUB 211153Z AUTO 29009KT 10SM CLR 12/M02 A2976 RMK AO2 SLP021
       T01221022 10183 20111 53001
METAR KPUB 211053Z AUTO 33011KT 10SM CLR 12/M02 A2975 RMK AO2 SLP017
       T01171017
METAR KPUB 210953Z AUTO 31005KT 10SM CLR 11/M01 A2974 RMK AO2 SLP013
       T01111011


METAR KTAD 211154Z AUTO 27012KT 10SM CLR 08/M04 A2985 RMK AO2 SLP042
       T00781039 10122 20044 51001
METAR KTAD 211054Z AUTO 27008KT 10SM CLR 06/M04 A2985 RMK AO2 SLP042
       T00561039
METAR KTAD 210954Z AUTO 29006KT 10SM CLR 08/M03 A2985 RMK AO2 SLP036
       T00831033

METAR KLHX 211153Z AUTO 25013KT 10SM CLR 12/M01 A2973 RMK AO2 SLP014
       T01171011 10200 20106 53008 TSNO
METAR KLHX 211053Z AUTO 24015KT 10SM CLR 12/M01 A2973 RMK AO2 SLP009
       T01221006 TSNO
METAR KLHX 210953Z AUTO 25014KT 10SM CLR 14/M01 A2971 RMK AO2 SLP003
       T01391006 TSNO

METAR KLAA 211153Z AUTO 25011KT 10SM CLR 11/01 A2969 RMK AO2 SLP008
       T01060006 10189 20094 53006
METAR KLAA 211053Z AUTO 25013KT 10SM CLR 12/01 A2967 RMK AO2 SLP000
       T01170006
METAR KLAA 210953Z AUTO 23007KT 10SM CLR 09/01 A2967 RMK AO2 SLP002
       T00940011

METAR KSPD 211156Z AUTO 26007KT 09/M02 A2975 RMK AO1 SLP022 T00891017
       10150 20061 53006
METAR KSPD 211056Z AUTO 25005KT 08/M01 A2974 RMK AO1 SLP016
       T00781011
METAR KSPD 210956Z AUTO 22009KT 08/00 A2974 RMK AO1 SLP014 T00780000

Sunrise/Sunset for 04/21/2019
Burlington - 06:03:27 MDT / 19:32:09 MDT
Pueblo     - 06:14:23 MDT / 19:40:00 MDT
Lamar      - 06:06:38 MDT / 19:31:43 MDT

Pueblo (KPUX) 04/21/19 12:13 UTC
Radar VAD winds      Height      Dir/Spd(kt)
                   6000 FT MSL...083/016
                   5700 FT MSL...071/008

Pueblo Aviation Discussion
Issued at 1116 UTC Sunday, April 21, 2019

.AVIATION...(For the 12Z TAFS through 12Z Monday morning)
Issued at 516 AM MDT Sun Apr 21 2019
VFR conditions expected today with another round of gusty west to
southwest winds in the afternoon as convective processes get going.
Erratic wind gusts from 40 to near 50 kts will be possible near high
based thunderstorms today though its much more likely terminals will
see gusts in the 30-40 kt range in the afternoon. A cold front will
drop through the area shifting winds at KCOS and KPUB from the north
during the early evening with gusts to near 30 kts possible.  Even
stronger gusts will be possible if the front becomes enhanced by
thunderstorm outflows to the north. MVFR to IFR cigs will develop
towards morning across the southeast mountains and plains though
models suggest cigs may stay in the MVFR range for KCOS and KPUB
given northerly downslope winds off the Palmer Divide into Monday
morning. KALS will remain VFR. -KT


* * * * * Northwest Colorado * * * * *

METAR KCAG 211153Z AUTO 00000KT 10SM SCT110 00/M02 A2987 RMK AO2 SLP088
       T00001017 10100 20000 53003
METAR KCAG 211053Z AUTO 00000KT 10SM FEW120 01/M02 A2986 RMK AO2 SLP078
        T00111022
METAR KCAG 210953Z AUTO 00000KT 10SM CLR 02/M02 A2986 RMK AO2 SLP071
       T00171022

METAR KHDN 211156Z AUTO 10008KT 10SM CLR 05/M02 A2989 RMK AO2 SLP076
       T00501017 10100 20039 53001
METAR KHDN 211056Z AUTO 06004KT 10SM FEW120 04/M02 A2988 RMK AO2 SLP075
       T00441017
METAR KHDN 210956Z AUTO 16003KT 10SM CLR 05/M02 A2988 RMK AO2 SLP069
       T00501017

METAR KSBS 211215Z AUTO 00000KT 10SM CLR 02/M01 A2990 RMK AO1
       T00181013
METAR KSBS 211155Z AUTO 00000KT 10SM CLR 03/M01 A2989 RMK AO1 T00311013
       10075 20021
METAR KSBS 211135Z AUTO 00000KT 10SM CLR 02/M01 A2989 RMK AO1
       T00211010

METAR KC07 211206Z AUTO 29004KT 10SM CLR 01/M05 A3003 RMK AO2
METAR KC07 211142Z AUTO 28004KT 10SM CLR 00/M05 A3002 RMK AO2
METAR KC07 211148Z AUTO 29004KT 10SM CLR 01/M05 A3002 RMK AO2

METAR K33V 211215Z AUTO 13006KT 10SM SCT095 00/M04 A2995 RMK AO1
METAR K33V 211155Z AUTO 13005KT 10SM CLR 01/M03 A2995 RMK AO1
METAR K33V 211135Z AUTO 13006KT 10SM SCT095 01/M04 A2994 RMK AO1

METAR KEEO 211153Z AUTO 22007KT 200V290 10SM FEW050 SCT075 BKN110 07/M01
        A2987 RMK AO2 RAB32E46 SLP055 P0000 60000 T00671006 10100
        20033 53003 $
METAR KEEO 211053Z AUTO 04004KT 10SM FEW065 OVC100 04/M01 A2987 RMK AO2
       SLP062 T00441006 $
METAR KEEO 210953Z AUTO 00000KT 10SM CLR 03/M01 A2986 RMK AO2 SLP061
       T00331011 $

METAR K20V 211212Z AUTO 00000KT 10SM SCT060 SCT070 BKN110 02/M01 A2996
       RMK AO2
METAR K20V 211154Z AUTO 11004KT 10SM SCT080 BKN090 02/00 A2994 RMK
       AO2
METAR K20V 211130Z AUTO 00000KT 10SM BKN090 02/00 A2994 RMK AO2

METAR KGNB 211210Z AUTO 36004KT 10SM SCT075 00/M02 A2998 RMK AO2
       T10051023
METAR KGNB 211150Z AUTO 00000KT 10SM BKN075 00/M02 A2998 RMK AO2
       T10011019 10040 21010
METAR KGNB 211125Z AUTO 00000KT 10SM SCT075 BKN085 00/M02 A2997 RMK AO2
       T10051025

METAR K0CO 211224Z AUTO 31016G22KT SCT036 BKN042 M03/M09 A3009 RMK AO2
       PWINO
METAR K0CO 211206Z AUTO 30018KT SCT034 SCT042 M03/M09 A3009 RMK AO2
       PWINO
METAR K0CO 211142Z AUTO 29016G24KT SCT032 M03/M09 A3009 RMK AO2
       PWINO

KGJT 211121Z 2112/2212 17005KT P6SM VCSH BKN100
     FM211700 15009KT P6SM SCT070 BKN100
     FM212000 23008KT P6SM SCT070 BKN100
     FM220200 09006KT P6SM FEW080 SCT180
METAR KGJT 211153Z 07004KT 10SM BKN110 11/01 A2986 RMK AO2 SLP067
       T01060011 10133 20083 53018
METAR KGJT 211053Z AUTO 17005KT 10SM BKN095 11/01 A2983 RMK AO2 SLP053
       T01060011
METAR KGJT 210953Z AUTO 10013KT 10SM CLR 10/01 A2981 RMK AO2 SLP044
       T01000011

KRIL 211121Z 2112/2212 VRB03KT P6SM VCSH BKN100
     FM212000 28008KT P6SM VCSH SCT070 BKN100
     FM220200 14009KT P6SM SCT070 BKN100
     FM220600 11005KT P6SM SCT080 BKN180
METAR KRIL 211153Z AUTO 00000KT 10SM SCT100 BKN120 05/01 A2987 RMK AO2
       SLP077 T00500006 10100 20039 53004 $
METAR KRIL 211053Z AUTO 14003KT 10SM CLR 04/00 A2986 RMK AO2 SLP070
       T00440000 $
METAR KRIL 210953Z AUTO 00000KT 10SM CLR 05/00 A2985 RMK AO2 SLP069
       T00500000 $

METAR K5SM 211212Z AUTO 21013G24KT 170V240 10SM BKN050 BKN070 OVC080
       00/M05 A3007 RMK AO2
METAR K5SM 211154Z AUTO 21011G19KT 10SM BKN050 00/M06 A3007 RMK AO2
METAR K5SM 211130Z AUTO 22009G15KT 10SM CLR 00/M06 A3007 RMK AO2

KEGE 211121Z 2112/2212 VRB03KT P6SM BKN120
     FM211900 24009KT P6SM VCSH SCT070 BKN090
     FM220200 10005KT P6SM SCT070 BKN100
     FM220800 00000KT P6SM FEW070 SCT200
METAR KEGE 211156Z AUTO 00000KT 10SM CLR 01/M02 A2994 RMK AO2 SLP128
       T00111022 10083 20011 53001 FZRANO
METAR KEGE 211056Z AUTO 00000KT 10SM CLR 02/M02 A2994 RMK AO2 SLP121
       T00221017 FZRANO
METAR KEGE 210956Z AUTO 00000KT 10SM CLR 02/M02 A2994 RMK AO2 SLP118
       T00221022 FZRANO

KASE 211121Z 2112/2212 21005KT P6SM BKN110
     FM211800 34005KT P6SM VCSH SCT060 BKN080
     FM220200 21006KT P6SM SCT070 BKN100
     FM220500 19005KT P6SM FEW070 SCT180
METAR KASE 211153Z AUTO 19006KT 10SM BKN085 02/M04 A2993 RMK AO2 SLP062
       T00221039 10050 20011 55001
METAR KASE 211053Z AUTO 21005KT 10SM CLR 02/M04 A2992 RMK AO2 SLP057
        T00221039
METAR KASE 210953Z AUTO 19005KT 10SM FEW120 02/M03 A2993 RMK AO2 SLP055
       T00221028

METAR KCCU 211213Z AUTO 10SM CLR 01/M06 A3010 RMK AO2
METAR KCCU 211154Z AUTO 10SM CLR 01/M07 A3009 RMK AO2
METAR KCCU 211136Z AUTO 10SM CLR 01/M06 A3008 RMK AO2

METAR KLXV 211153Z AUTO 00000KT 10SM CLR M03/M07 A3001 RMK AO2 SLP077
       T10281067 10022 21039 55000
METAR KLXV 211053Z AUTO 00000KT 10SM CLR M02/M06 A3000 RMK AO2 SLP059
       T10221061
METAR KLXV 210953Z AUTO VRB03KT 10SM CLR M02/M06 A3001 RMK AO2 SLP050
       T10171056

Sunrise/Sunset for 04/21/2019
Rangely           - 06:28:17 MDT / 19:59:22 MDT
Grand Junction    - 06:28:54 MDT / 19:56:57 MDT
Steamboat Springs - 06:19:51 MDT / 19:52:08 MDT

Grand Junction (KGJX) 04/21/19 12:07 UTC
Radar VAD winds      Height      Dir/Spd(kt)
                  30000 FT MSL...188/010
                  28000 FT MSL...218/015
                  26000 FT MSL...212/012
                  25000 FT MSL...227/016
                  24000 FT MSL...226/017
                  22000 FT MSL...216/016
                  20000 FT MSL...218/017
                  19000 FT MSL...215/016
                  18000 FT MSL...220/017
                  18000 FT MSL...213/015
                  17000 FT MSL...224/020
                  16300 FT MSL...214/014
                  16000 FT MSL...222/022
                  15000 FT MSL...205/014
                  14600 FT MSL...220/013
                  14000 FT MSL...223/014
                  13000 FT MSL...227/014
                  12900 FT MSL...226/016
                  12000 FT MSL...247/015
                  11100 FT MSL...237/021
                  11000 FT MSL...253/012
                  11000 FT MSL...242/015
                  10400 FT MSL...261/011

Grand Junction Aviation Discussion
Issued at 1127 UTC Sunday, April 21, 2019

.AVIATION...(For the 12Z TAFS through 12Z Monday morning)
Issued at 527 AM MDT Sun Apr 21 2019
Showers and embedded thunderstorms will move over the area during
the day and are expected to linger into the night. Potential for
showers at TAF sites are relatively low, though brief light
showers cannot be entirely ruled out. Regardless, flight
conditions should remain at VFR levels and CIGS below ILS
breakpoints are unlikely. Gusty outflow winds associated with
showers/thunderstorms is far more likely with peak gusts to 45 MPH
possible.


* * * * * Southwest Colorado * * * * *

METAR KAJZ 211215Z AUTO 36003KT 10SM SCT065 BKN080 OVC100 10/01 A2991
       RMK AO2 T00950007
METAR KAJZ 211155Z AUTO 07005KT 10SM OVC100 10/01 A2989 RMK AO2
       T01000008 10114 20072
METAR KAJZ 211135Z AUTO 03007KT 10SM BKN100 BKN120 09/01 A2988 RMK AO2
       T00930009

KMTJ 211121Z 2112/2212 VRB04KT P6SM VCSH BKN110
     FM211800 29007KT P6SM SCT060 BKN150
     FM212000 26008KT P6SM SCT080 BKN100
     FM220200 15007KT P6SM FEW100 SCT250
METAR KMTJ 211153Z AUTO 09012KT 10SM BKN090 OVC110 10/00 A2991 RMK AO2
       SLP073 T01000000 10111 20061 53007
METAR KMTJ 211053Z AUTO 06006KT 10SM BKN110 09/M01 A2989 RMK AO2 SLP065
       T00941011
METAR KMTJ 210953Z AUTO VRB05KT 10SM OVC110 07/M02 A2990 RMK AO2 SLP067
       T00721017

METAR KGUC 211156Z AUTO 00000KT 10SM BKN080 M02/M03 A3003 RMK AO2 SLP149
       T10171028 10022 21022 53005 FZRANO
METAR KGUC 211056Z AUTO 00000KT 10SM BKN085 M02/M02 A3001 RMK AO2 SLP133
       T10171022 FZRANO
METAR KGUC 210956Z AUTO 00000KT 10SM CLR M02/M02 A3000 RMK AO2 SLP132
       T10171022 FZRANO

METAR K7BM 211206Z AUTO 00000KT 10SM CLR 04/M06 A3003 RMK AO2
METAR K7BM 211147Z AUTO 00000KT 10SM CLR 03/M05 A3002 RMK AO2
METAR K7BM 211124Z AUTO 00000KT 10SM CLR 04/M05 A3002 RMK AO2

METAR KAEJ 211215Z AUTO 29004KT 10SM CLR 00/M04 A2998 RMK AO2
       T10041045
METAR KAEJ 211155Z AUTO 25005KT 10SM CLR M01/M05 A2997 RMK AO2 T10101046
       10061 21010
METAR KAEJ 211135Z AUTO 26004KT 10SM CLR 00/M04 A2998 RMK AO2
       T10051044

METAR KANK 211215Z AUTO 00000KT 10SM CLR 04/M03 A3004 RMK AO1
       T00361028
METAR KANK 211155Z AUTO 34005KT 10SM CLR 04/M03 A3003 RMK AO1 T00361026
        10096 20030
METAR KANK 211135Z AUTO 02004KT 10SM CLR 03/M03 A3003 RMK AO1
       T00321028

METAR KMYP 211213Z AUTO 25020KT 10SM SCT043 BKN050 OVC120 M01/M05 A3020
       RMK AO2
METAR KMYP 211153Z AUTO 24017KT 10SM SCT041 SCT048 BKN120 M01/M05 A3020
       RMK AO2
METAR KMYP 211136Z AUTO 24017KT 10SM SCT039 M02/M05 A3020 RMK AO2

METAR KAIB 211215Z AUTO 29004KT 10SM SCT070 OVC085 10/M02 A2995 RMK
       AO2
METAR KAIB 211155Z AUTO 27006KT 10SM OVC085 10/M02 A2994 RMK AO2
METAR KAIB 211135Z AUTO 00000KT 10SM SCT060 OVC070 10/M02 A2994 RMK
       AO2

KTEX 211121Z 2112/2212 VRB04KT P6SM VCSH BKN070 OVC090
     FM211500 VRB04KT P6SM SCT070 BKN090
     FM211700 19006KT P6SM FEW070 SCT100
     FM212000 21010G19KT P6SM FEW070 SCT100
     FM220200 13005KT P6SM FEW070 FEW250
METAR KTEX 211215Z AUTO 18007KT 10SM BKN060 OVC070 04/M01 A3006 RMK
       AO2
METAR KTEX 211155Z AUTO 00000KT 10SM OVC060 03/00 A3005 RMK AO2
METAR KTEX 211135Z AUTO 16003KT 10SM OVC065 04/00 A3005 RMK AO2

METAR K04V 211218Z AUTO 00000KT 10SM SCT120 01/M03 A3000 RMK AO2
METAR K04V 211200Z AUTO 00000KT 10SM BKN110 00/M03 A3000 RMK AO2
METAR K04V 211154Z AUTO 00000KT 10SM BKN110 00/M03 A3000 RMK AO2

METAR KCEZ 211153Z AUTO 13007KT 10SM BKN110 07/M01 A2993 RMK AO2 SLP086
       T00671006 10128 20033 50007 $
METAR KCEZ 211053Z AUTO 25009KT 10SM SCT060 OVC080 12/M02 A2994 RMK AO2
       SLP077 T01171022 $
METAR KCEZ 210953Z AUTO 03003KT 10SM OVC100 07/01 A2991 RMK AO2 SLP075
       T00670006 $

KDRO 211121Z 2112/2212 00000KT P6SM VCSH BKN070 OVC090
     FM211400 VRB04KT P6SM SCT070 BKN090
     FM212000 24012G20KT P6SM FEW080 FEW250
     FM220300 04005KT P6SM FEW100 FEW250
METAR KDRO 211153Z AUTO VRB05KT 10SM -RA BKN048 OVC060 06/M01 A3001 RMK
       AO2 RAB39 SLP112 P0000 60000 T00561011 10056 20006 53013
METAR KDRO 211053Z AUTO 00000KT 10SM BKN070 OVC090 02/M03 A2998 RMK AO2
       SLP113 T00171033
METAR KDRO 210953Z AUTO 00000KT 10SM CLR 03/M03 A2996 RMK AO2 SLP105
       T00331028

METAR KPSO 211215Z AUTO 00000KT 10SM OVC085 02/00 A3004 RMK AO2
       T00180002
METAR KPSO 211155Z AUTO 00000KT 10SM BKN085 01/00 A3003 RMK AO2
       T00061001 10051 20000
METAR KPSO 211135Z AUTO 00000KT 10SM CLR 00/M01 A3002 RMK AO2
       T00001006

METAR KCPW 211206Z AUTO 20010G14KT 10SM SCT018 SCT033 BKN042 M04/M05
       A3017 RMK AO2
METAR KCPW 211148Z AUTO 21009KT 10SM SCT018 M04/M05 A3017 RMK AO2
METAR KCPW 211124Z AUTO 19013G18KT 10SM CLR M03/M05 A3016 RMK AO2

KALS 211137Z 2112/2212 VRB06KT P6SM BKN150
     FM211600 23012KT P6SM FEW100 SCT200
     FM211800 25015G25KT P6SM VCTS SCT080CB BKN140
      TEMPO 2120/2124 VRB20G40KT BKN080CB
     FM220100 27008KT P6SM BKN150
     FM220400 14006KT P6SM SCT150
METAR KALS 211152Z AUTO 00000KT 10SM CLR M02/M03 A2998 RMK AO2 SLP113
       T10171033 10039 21022 51001
METAR KALS 211052Z AUTO 34004KT 10SM FEW085 M01/M03 A2998 RMK AO2 SLP096
       T10111033
METAR KALS 210952Z AUTO 00000KT 10SM CLR 01/M03 A2998 RMK AO2 SLP082
        T00111033

Sunrise/Sunset for 04/21/2019
Vail    - 06:19:17 MDT / 19:49:00 MDT
Durango - 06:28:47 MDT / 19:51:36 MDT
Alamosa - 06:20:32 MDT / 19:43:52 MDT

Grand Junction (KGJX) 04/21/19 12:17 UTC
Radar VAD winds      Height      Dir/Spd(kt)
                  30000 FT MSL...182/010
                  28000 FT MSL...215/009
                  26000 FT MSL...212/014
                  25000 FT MSL...215/017
                  24000 FT MSL...221/016
                  22000 FT MSL...215/016
                  20000 FT MSL...219/016
                  19000 FT MSL...220/018
                  18000 FT MSL...220/017
                  18000 FT MSL...211/017
                  17000 FT MSL...218/017
                  16300 FT MSL...217/016
                  16000 FT MSL...222/017
                  15000 FT MSL...212/013
                  14600 FT MSL...225/015
                  14000 FT MSL...218/016
                  13000 FT MSL...217/014
                  12900 FT MSL...229/016
                  12000 FT MSL...248/014
                  11100 FT MSL...236/022
                  11000 FT MSL...252/012
                  11000 FT MSL...255/012
                  10400 FT MSL...257/012

Grand Junction Aviation Discussion
Issued at 1127 UTC Sunday, April 21, 2019

.AVIATION...(For the 12Z TAFS through 12Z Monday morning)
Issued at 527 AM MDT Sun Apr 21 2019
Showers and embedded thunderstorms will move over the area during
the day and are expected to linger into the night. Potential for
showers at TAF sites are relatively low, though brief light
showers cannot be entirely ruled out. Regardless, flight
conditions should remain at VFR levels and CIGS below ILS
breakpoints are unlikely. Gusty outflow winds associated with
showers/thunderstorms is far more likely with peak gusts to 45 MPH
possible.


* * * * * Arizona * * * * *

KPGA 211120Z 2112/2212 23008KT P6SM SKC
     FM212000 29012G19KT P6SM SCT120 BKN150
     FM220100 VRB06KT P6SM SCT100
METAR KPGA 211153Z AUTO 18009KT 10SM CLR 16/M07 A2980 RMK AO2 SLP038
       T01561067 10206 20150 51004 TSNO
METAR KPGA 211053Z AUTO 19006KT 10SM CLR 16/M06 A2980 RMK AO2 SLP036
       T01611061 TSNO

METAR KRQE 211153Z AUTO 16004KT 10SM CLR 07/M03 A3001 RMK AO2 SLP068
        T00721033 10111 20067 53004
METAR KRQE 211053Z AUTO 00000KT 10SM CLR 09/M04 A2999 RMK AO2 SLP063
       T00891039
METAR KRQE 210953Z AUTO 00000KT 10SM FEW120 09/M04 A2999 RMK AO2 SLP061
       T00891044

Flagstaff (KFSX) 04/21/19 12:13 UTC
Radar VAD winds      Height      Dir/Spd(kt)
                  11000 FT MSL...222/038
                  10000 FT MSL...231/042
                  10000 FT MSL...237/041
                   9200 FT MSL...236/037
                   9000 FT MSL...236/037
                   8500 FT MSL...228/030
                   8100 FT MSL...222/039
                   8000 FT MSL...220/036
                   7800 FT MSL...221/034

Flagstaff Aviation Discussion
Issued at 0939 UTC Sunday, April 21, 2019

.AVIATION...For the 12Z Package...Expect VFR conditions for the next
24 hrs. SW winds increase after 15Z Sun to around 10-15G20-25 kts.
Strongest SW winds at 15-25g25-35 kts NE of higher terrain and SE of
a KINW-KRQE line. Winds decrease after 02z Mon. Aviation discussion
not updated for TAF amendments.


* * * * * Utah * * * * *

KSLC 211150Z 2112/2218 18007KT P6SM VCSH SCT050 OVC080
     FM211300 18005KT 5SM SHRA BR SCT025 OVC050
     FM211500 34005KT P6SM VCSH SCT050 OVC070
     FM211900 33006KT 6SM -RA BR SCT025 OVC035
     FM220200 35005KT P6SM -SHRA SCT025 OVC040
     FM220700 35005KT P6SM -SHRA SCT035 BKN070
     FM221300 01006KT P6SM SCT050 BKN090
METAR KSLC 211154Z 19008KT 10SM FEW055 BKN080 BKN120 11/10 A2980 RMK AO2
       SLP055 60005 70011 T01110100 10122 20111 55005 $
METAR KSLC 211054Z 06005KT 10SM BKN055 BKN120 11/10 A2979 RMK AO2 RAE15
       SLP055 P0002 T01110100 $
METAR KSLC 210954Z 32008KT 6SM -RA BR FEW030 SCT046 BKN060 11/09 A2980
       RMK AO2 RAB50 SLP054 P0000 T01110094 $

KVEL 211121Z 2112/2212 VRB03KT P6SM SCT100 BKN150
     FM212000 18007KT P6SM BKN100
     FM220200 35009KT P6SM VCSH SCT045 BKN100
     FM220400 03008KT P6SM SCT060 BKN080
METAR KVEL 211153Z AUTO 27003KT 10SM OVC095 08/01 A2982 RMK AO2 SLP053
       T00780011 10106 20061 53006
METAR KVEL 211053Z AUTO 28006KT 10SM FEW100 08/01 A2982 RMK AO2 SLP052
       T00780006
METAR KVEL 210953Z AUTO 00000KT 10SM SCT120 07/01 A2981 RMK AO2 SLP046
       T00720006

METAR KPUC 211153Z AUTO 05007KT 10SM BKN075 OVC095 10/02 A2985 RMK AO2
       SLP066 60000 T01000022 10117 20089 53010
METAR KPUC 211053Z AUTO 00000KT 10SM OVC075 11/02 A2984 RMK AO2 SLP059
       T01060017

KCNY 211121Z 2112/2212 VRB03KT P6SM VCSH BKN090 OVC110
     FM211600 13010KT P6SM FEW070 SCT180
     FM212000 23013G21KT P6SM FEW100 SCT180
     FM220200 27010KT P6SM FEW080 SCT200
METAR KCNY 211153Z AUTO 33009KT 10SM SCT070 OVC080 14/04 A2981 RMK
        AO2 RAB24E53 SLP048 P0000 60000 T01390039 10189 20117 51009
METAR KCNY 211053Z AUTO 22003KT 10SM BKN090 OVC110 14/04 A2980 RMK
        AO2 RAB10E24 SLP043 P0000 T01390039
METAR KCNY 210953Z AUTO 00000KT 10SM OVC085 16/02 A2980 RMK AO2 PK WND
       21030/0905 RAB08E32 SLP040 P0000 T01560017


Salt Lake City (KMTX) 04/21/19 12:17 UTC
Radar VAD winds      Height      Dir/Spd(kt)
                  30000 FT MSL...276/011
                  28000 FT MSL...166/018
                  28000 FT MSL...161/011
                  26000 FT MSL...196/013
                  25000 FT MSL...200/011
                  24000 FT MSL...221/012
                  23900 FT MSL...194/011
                  22000 FT MSL...213/015
                  20500 FT MSL...215/011
                  20000 FT MSL...201/010
                  19000 FT MSL...212/016
                  18000 FT MSL...212/014
                  17800 FT MSL...231/013
                  17000 FT MSL...226/013
                  16000 FT MSL...226/014
                  15500 FT MSL...240/012
                  15000 FT MSL...233/012
                  14000 FT MSL...237/013
                  13600 FT MSL...242/012
                  13000 FT MSL...237/012
                  12100 FT MSL...230/009
                  12000 FT MSL...236/010
                  11000 FT MSL...227/007
                  10900 FT MSL...234/006
                  10000 FT MSL...182/007
                   9900 FT MSL...180/006
                   8300 FT MSL...130/004
                   8000 FT MSL...207/004
                   7600 FT MSL...122/006
                   7100 FT MSL...188/006
                   7000 FT MSL...184/005
                   6900 FT MSL...176/005

Salt Lake City Aviation Discussion
Issued at 0943 UTC Sunday, April 21, 2019

.AVIATION...Ceilings will run between 6-8 kft with scattered
showers over/near the terminal through mid-morning. Precipitation
will turn steady during the afternoon with ceilings ranging
between 4-5 kft during the afternoon through early this evening.
Brief period of MVFR ceilings/visibilities are possible in heavier
rain during the mid to late afternoon. Prevailing winds will
remain on the light side with directions varying between west and
north through the current TAF period.


* * * * * Wyoming * * * * *

KEVW 211120Z 2112/2212 35008KT P6SM -SHRA OVC045
     FM211700 16007KT P6SM VCSH BKN045 OVC070
     FM212200 25012KT P6SM -SHRA BKN035 OVC045
     FM220100 25008KT 6SM -RA BR BKN020 OVC030
     FM220500 25005KT 3SM -RASN BR SCT010 OVC020=
METAR KEVW 211153Z AUTO 10004KT 10SM BKN065 OVC075 04/02 A2988 RMK
        AO2 SLP056 60000 T00440017 10067 20039 58002
METAR KEVW 211053Z AUTO 09007KT 10SM SCT037 BKN043 OVC060 04/02 A2988
       RMK AO2 RAB36E52 SLP056 P0000 T00390017
METAR KEVW 210953Z AUTO 28007KT 10SM OVC042 04/01 A2988 RMK AO2 RAB12E52
       SLP056 P0000 T00440011

KRKS 211128Z 2112/2212 24007KT P6SM SCT060 BKN100
     FM211500 07010KT P6SM VCSH SCT035 BKN090
     FM212000 07013G25KT P6SM -SHRA VCTS SCT030CB OVC060
     FM220300 07020G28KT 5SM SHRA SCT008 OVC017
     FM220900 07016G24KT 4SM -SHRASN SCT006 OVC012
METAR KRKS 211154Z AUTO 25010KT 10SM BKN080 04/01 A2989 RMK AO2 SLP076
       T00440011 10089 20039 53005
METAR KRKS 211054Z AUTO 21006KT 10SM BKN110 05/01 A2987 RMK AO2 SLP059
       T00500011
METAR KRKS 210954Z AUTO 25005KT 10SM BKN100 OVC120 06/01 A2986 RMK AO2
       SLP056 T00610006

KRWL 211131Z 2112/2212 23008KT P6SM BKN150
     FM211500 28006KT P6SM VCSH BKN050 OVC120
     FM211900 33012KT 6SM -SHRA SCT010 OVC020
     FM220200 04020G26KT 4SM -RASN OVC007
METAR KRWL 211153Z AUTO 25008KT 10SM CLR 08/M02 A2986 RMK AO2 SLP038
        T00781017 10111 20072 53003
METAR KRWL 211053Z AUTO VRB05KT 10SM CLR 08/M02 A2985 RMK AO2 SLP029
       T00781022
METAR KRWL 210953Z AUTO 27008KT 10SM BKN120 09/M02 A2984 RMK AO2 SLP022
       T00891017

KLAR 211131Z 2112/2212 24005KT P6SM BKN100
     FM211500 02008KT P6SM VCSH BKN050 OVC120
     FM212300 36012KT 6SM -SHRA SCT010 OVC020
     FM220400 03012KT 2SM -RA OVC007
METAR KLAR 211153Z AUTO 18007KT 10SM OVC095 08/M01 A2986 RMK AO2 SLP024
       60000 7//// T00781011 10122 20072 55002 $
METAR KLAR 211053Z AUTO 18008KT 10SM OVC095 08/M02 A2985 RMK AO2 SLPNO
       T00831017 $
METAR KLAR 210953Z AUTO 19007KT 10SM OVC080 08/M01 A2986 RMK AO2 SLP051
       T00831006 $

KCYS 211131Z 2112/2212 30009KT P6SM BKN100
     FM211600 02012G20KT P6SM VCSH SCT008 OVC020
     FM212000 02013G23KT 3SM -SHRA BR BKN006 OVC020
     FM220600 36013G21KT 3SM -RA BR OVC003
METAR KCYS 211153Z 24008KT 10SM BKN070 OVC085 11/02 A2983 RMK AO2 SLP028
       T01060022 10161 20106 53004
METAR KCYS 211053Z AUTO 25007KT 10SM OVC085 11/02 A2982 RMK AO2 SLP024
       T01060022
METAR KCYS 210953Z AUTO 31009KT 10SM BKN070 OVC090 12/01 A2983 RMK AO2
       SLP018 T01220011

Riverton (KRIW) 04/21/19 12:15 UTC
Radar VAD winds      Height      Dir/Spd(kt)
                  25000 FT MSL...232/007
                  24000 FT MSL...244/009
                  22000 FT MSL...233/006
                  20000 FT MSL...181/018
                  19000 FT MSL...202/022
                  18000 FT MSL...202/025
                  17000 FT MSL...215/015
                  16800 FT MSL...213/015
                  16000 FT MSL...214/011
                  15000 FT MSL...198/022
                  14600 FT MSL...215/009
                  14000 FT MSL...200/016
                  13000 FT MSL...163/017
                  12700 FT MSL...215/005
                  12000 FT MSL...115/009
                  11200 FT MSL...130/011
                  11000 FT MSL...165/015
                  10000 FT MSL...095/016
                  10000 FT MSL...087/014
                   9000 FT MSL...156/019
                   8900 FT MSL...113/013
                   8100 FT MSL...140/012
                   8000 FT MSL...108/009
                   7000 FT MSL...047/012
                   6000 FT MSL...046/020

Cheyenne (KCYS) 04/21/19 12:12 UTC
Radar VAD winds      Height      Dir/Spd(kt)
                  29000 FT MSL...187/030
                  28000 FT MSL...185/024
                  27000 FT MSL...190/009
                  26000 FT MSL...171/010
                  25000 FT MSL...168/010
                  24000 FT MSL...165/012
                  23000 FT MSL...173/011
                  22000 FT MSL...177/012
                  21000 FT MSL...179/011
                  20000 FT MSL...177/010
                  19000 FT MSL...169/009
                  18000 FT MSL...159/006
                  14100 FT MSL...010/009
                  14000 FT MSL...002/011
                  13000 FT MSL...352/011
                  12400 FT MSL...340/012
                  12000 FT MSL...326/011
                  11000 FT MSL...324/010
                  10700 FT MSL...320/010
                   9000 FT MSL...283/021
                   8900 FT MSL...282/021
                   8000 FT MSL...339/008

Riverton Aviation Discussion
Issued at 0913 UTC Sunday, April 21, 2019

.AVIATION...(For the 12Z TAFS through 12Z Monday morning)
East of the Divide...KCOD/KCPR/KLND/KRIW/KWRL Terminals
A cold front will continue to push south to a vicinity KCPR-KRIW by
12z.  Isolated to scattered showers will continue primarily along
and behind the front.  Areas of MVFR, local IFR ceilings will spill
down the Cody Foothills into vicinity KWRL by 12z with MVFR ceilings
filling in most areas east of the Divide by 18z Sunday.  These
ceilings are expected to persist across most of the area through 12z
Monday.  IFR conditions may develop in favored upslope areas (KCOD,
KCPR, KLND) Sunday evening with precipitation becoming mixed with
snow, producing MVFR visibilities.
West of the Divide...KBPI/KJAC/KPNA/KRKS Terminals
Primarily VFR conditions will prevail with scattered showers and
local MVFR conditions through 18z Sunday.  Showers, MVFR conditions,
will increase across the southwest Sunday afternoon with mountains
becoming mostly obscured.  Isolated thunderstorms will be possible
vicinity KRKS.  Heavier precipitation and areas of IFR conditions
are expected to develop vicinity and west of a KRKS-KBPI line 21z
Sunday-06z Monday, with the northern edge of this precipitation band
vicinity KJAC.  Snow levels will lower to near valley floors 06z-12z
Monday but precipitation intensity and coverage will be on the
decrease.

Cheyenne Aviation Discussion
Issued at 1137 UTC Sunday, April 21, 2019

.AVIATION...(For the 12Z TAFS through 12Z Monday morning)
Issued at 532 AM MDT Sun Apr 21 2019
A wet period for this series of TAFs as a backdoor cold front
passed through the region with a trailing cutoff low over the
western mountains. Tailored back the start time of low ceilings as
precipitation slow to start this morning but will be on the
increase late morning into the afternoon. MVFR and IFR and
possibly even periods of LIFR will accompany the rain chances
today. Rain and low ceilings for most sites expected to continue
into tonight and portions of early Monday morning.


* * * * * Nebraska * * * * *

METAR KIBM 211215Z AUTO 00000KT 10SM BKN110 10/05 A2978 RMK AO2
       T00960049
METAR KIBM 211155Z AUTO 00000KT 10SM SCT120 10/05 A2977 RMK AO2
       T00970048 10170 20097
METAR KIBM 211135Z AUTO 33004KT 10SM SCT120 10/05 A2976 RMK AO2
       T01040048

KSNY 211131Z 2112/2212 33010KT P6SM BKN100
     FM211400 34015G25KT P6SM VCSH SCT035 OVC050
     FM211800 02015G25KT 6SM -SHRA BR BKN015 OVC020
METAR KSNY 211153Z AUTO 33015KT 10SM FEW120 11/07 A2973 RMK AO2 SLP025
       T01060072 10167 20100 53014
METAR KSNY 211053Z AUTO 34014KT 10SM CLR 11/07 A2969 RMK AO2 SLP011
       T01060067
METAR KSNY 210953Z AUTO 35016KT 10SM CLR 12/06 A2969 RMK AO2 SLP010
       T01220061

METAR KOGA 211215Z AUTO 36013G16KT 10SM CLR 12/07 A2965 RMK AO2
       T01150065
METAR KOGA 211155Z AUTO 34003KT 10SM CLR 12/07 A2965 RMK AO2 T01200072
       10183 20097
METAR KOGA 211135Z AUTO 03006KT 10SM CLR 11/07 A2965 RMK AO2
       T01090070

METAR KIML 211153Z AUTO VRB04KT 10SM CLR 09/03 A2961 RMK AO2 SLP003
       T00940033 10172 20094 53004
METAR KIML 211053Z AUTO 27009KT 10SM CLR 13/03 A2959 RMK AO2 SLP989
       T01280033
METAR KIML 210953Z AUTO 17006KT 10SM CLR 12/05 A2961 RMK AO2 SLP997
       T01170050

KMCK 211120Z 2112/2212 09006KT P6SM SCT130 BKN200
     FM211500 04006KT P6SM SKC
     FM211800 36008KT P6SM FEW040
     FM212200 34014G22KT P6SM SCT040
     FM220100 34017G27KT P6SM VCTS SCT035CB BKN100
      TEMPO 2202/2206 -TSRA BKN020CB
     FM220700 33017KT P6SM BKN020
METAR KMCK 211153Z AUTO 05007KT 10SM CLR 10/07 A2958 RMK AO2 SLP996
       T01000072 10178 20100 56011 $
METAR KMCK 211053Z AUTO 08006KT 10SM CLR 12/08 A2958 RMK AO2 SLP994
       T01220083 $
METAR KMCK 210953Z AUTO 05005KT 10SM FEW110 12/08 A2960 RMK AO2 SLP000
       T01220078 $

North Platte (KLNX) 04/21/19 12:18 UTC
Radar VAD winds      Height      Dir/Spd(kt)
                  25000 FT MSL...181/028
                  24000 FT MSL...172/019
                  22000 FT MSL...167/022
                  20000 FT MSL...163/028
                  17000 FT MSL...199/013
                  11000 FT MSL...135/021
                  10200 FT MSL...152/025
                  10000 FT MSL...152/024
                   9000 FT MSL...156/023
                   8700 FT MSL...156/022
                   8000 FT MSL...157/021
                   7500 FT MSL...157/025
                   7000 FT MSL...151/022
                   6400 FT MSL...142/021
                   6000 FT MSL...108/022
                   5600 FT MSL...109/020
                   5000 FT MSL...084/021
                   4800 FT MSL...078/021
                   4100 FT MSL...079/022
                   4000 FT MSL...075/019
                   3700 FT MSL...076/017

North Platte Aviation Discussion
Issued at 1114 UTC Sunday, April 21, 2019

.AVIATION...(For the 12Z TAFS through 12Z Monday morning)
Issued at 613 AM CDT Sun Apr 21 2019
A cold front moving through west central Nebraska this morning
will produce MVFR or lower ceilings across northern Nebraska,
which will continue through the day today. In addition, showers
and thunderstorms are expected, with activity already occurring
across northwest Nebraska early this morning. MVFR visibility will
be possible in areas of showers. Coverage of the showers and
storms becomes more numerous after 18z today across northern
Nebraska, with lesser, but non-zero chances further south.


* * * * * Kansas * * * * *

KGLD 211120Z 2112/2212 28011KT P6SM SKC
     FM211500 32014G21KT P6SM SKC
     FM212200 35013KT P6SM VCTS SCT050CB SCT100
      TEMPO 2200/2204 VRB30G45KT 3SM -TSRA BR BKN050CB
     FM220500 35016KT P6SM BKN200
     FM220800 35016KT P6SM SCT008 BKN020
     FM221000 34016G24KT P6SM BKN010
METAR KGLD 211153Z AUTO 27010KT 10SM CLR 11/01 A2961 RMK AO2 SLP990
       T01060006 10233 20100 55002 $
METAR KGLD 211053Z AUTO 26012KT 10SM CLR 12/01 A2960 RMK AO2 SLP983
       T01170006 $
METAR KGLD 210953Z AUTO 26009KT 10SM CLR 13/01 A2961 RMK AO2 SLP984
       T01330006 $

KGCK 211120Z 2112/2212 20009KT P6SM SKC
     FM211500 25015G25KT P6SM SKC
     FM220000 36017G27KT P6SM OVC150
     FM220900 36020G30KT P6SM BKN100
METAR KGCK 211154Z AUTO 24006KT 10SM CLR 11/04 A2965 RMK AO2 SLP012
       T01110039 10206 20106 53002
METAR KGCK 211054Z AUTO 19008KT 10SM CLR 11/05 A2964 RMK AO2 SLP008
       T01060050
METAR KGCK 210954Z AUTO 20010KT 10SM CLR 15/05 A2964 RMK AO2 SLP005
       T01500050

METAR KLBL 211156Z AUTO 21008KT 10SM CLR 08/05 A2970 RMK AO2 SLP032
       T00830050 10189 20083 55000
METAR KLBL 211056Z AUTO 20009KT 10SM CLR 10/06 A2968 RMK AO2 SLP025
       T01000056
METAR KLBL 210956Z AUTO 21009KT 10SM CLR 12/06 A2969 RMK AO2 SLP025
       T01170056

METAR KEHA 211215Z AUTO 25013KT 10SM CLR 15/02 A2973 RMK AO2
       T01480018
METAR KEHA 211155Z AUTO 25014KT 10SM CLR 15/02 A2972 RMK AO2 T01450020
       10216 20145
METAR KEHA 211135Z AUTO 25012KT 10SM CLR 15/02 A2971 RMK AO2
       T01480021

Goodland (KGLD) 04/21/19 12:11 UTC
Radar VAD winds      Height      Dir/Spd(kt)
                  12000 FT MSL...179/022
                  11600 FT MSL...169/020
                  11000 FT MSL...179/019
                  10000 FT MSL...187/019
                   9900 FT MSL...189/021
                   9000 FT MSL...199/017
                   8200 FT MSL...196/017
                   8000 FT MSL...177/018
                   7000 FT MSL...169/009
                   6500 FT MSL...184/020
                   6000 FT MSL...198/004
                   4600 FT MSL...300/007

Dodge City (KDDC) 04/21/19 12:17 UTC
Radar VAD winds      Height      Dir/Spd(kt)
                  14000 FT MSL...228/027
                  13800 FT MSL...226/024
                  13000 FT MSL...225/028
                  12000 FT MSL...230/030
                  11500 FT MSL...230/025
                  11000 FT MSL...225/020
                  10000 FT MSL...226/027
                   9600 FT MSL...224/025
                   9000 FT MSL...222/026
                   8100 FT MSL...231/022
                   8000 FT MSL...227/023
                   7000 FT MSL...234/018
                   6900 FT MSL...234/018
                   6000 FT MSL...232/017
                   6000 FT MSL...233/017
                   5000 FT MSL...233/019
                   5000 FT MSL...241/017
                   4000 FT MSL...232/026
                   3200 FT MSL...196/035

Goodland Aviation Discussion
Issued at 1015 UTC Sunday, April 21, 2019

.AVIATION...(For the 12Z TAFS through 12Z Monday morning)
Issued at 415 AM MDT Sun Apr 21 2019
For KGLD and KMCK vfr conditions expected from taf issuance
through approximately 23z. From 00z-06z showers and thunderstorms
possibly producing sub vfr vis in rain expected along with wind
gusts possibly reaching severe criteria. After 06z sub vfr cigs
move in behind a cold front.

Dodge City Aviation Discussion
Issued at 0930 UTC Sunday, April 21, 2019

.AVIATION...(For the 12Z TAFS through 12Z Monday morning)
Issued at 430 AM CDT Sun Apr 21 2019
VFR will continue through this TAF cycle, with SKC or scattered
cirrus through this afternoon. After 15z Sun, SW winds will
increase at all terminals, gusting in the 25-28 kt range. A cold
front will arrive during the 00-03z Mon time frame, accompanied by
a northerly wind shift, also gusting in the 25-28 kt range. Models
continue to suggest isolated convection will develop along/behind
the advancing cold front boundary in the NE zones, most likely
naar HYS. Included a VCTS mention in the HYS TAF. Otherwise,
midlevel cloud cigs will gradually lower tonight through sunrise
Monday in the post-frontal airmass.


* * * * * Texas/Oklahoma * * * * *

KGUY 211120Z 2112/2212 23010KT P6SM FEW200
     FM211600 23019G29KT P6SM FEW200
     FM220100 22010KT P6SM FEW250
     FM220700 35016G24KT P6SM FEW250=
METAR KGUY 211153Z AUTO 20005KT 10SM CLR 09/02 A2970 RMK AO2 SLP016
       T00940017 10194 20089 53002
METAR KGUY 211053Z AUTO 23005KT 10SM CLR 11/03 A2969 RMK AO2 SLP012
       T01110028
METAR KGUY 210953Z AUTO 22012KT 10SM CLR 13/03 A2969 RMK AO2 SLP009
       T01330033

KDHT 211120Z 2112/2212 25010KT P6SM FEW200
     FM211600 23020G30KT P6SM FEW200
     FM220200 22010KT P6SM FEW250
     FM220800 36015G23KT P6SM FEW250
METAR KDHT 211153Z AUTO 30004KT 10SM CLR 10/00 A2980 RMK AO2 SLP045
       T01000000 10178 20072 53004
METAR KDHT 211053Z AUTO 27010KT 10SM CLR 10/01 A2979 RMK AO2 SLP039
       T01000011

Amarillo (KAMA) 04/21/19 12:13 UTC
Radar VAD winds      Height      Dir/Spd(kt)
                  45000 FT MSL...235/053
                  28000 FT MSL...245/001
                  26000 FT MSL...245/051
                  25000 FT MSL...066/000
                  24000 FT MSL...125/000
                  15000 FT MSL...245/030
                  14000 FT MSL...245/031
                  13000 FT MSL...248/029
                  12000 FT MSL...252/027
                  11600 FT MSL...255/027
                  11000 FT MSL...261/027
                  10000 FT MSL...273/029
                   9900 FT MSL...273/029
                   9000 FT MSL...275/025
                   8200 FT MSL...272/021
                   8000 FT MSL...276/020
                   7000 FT MSL...296/024
                   6500 FT MSL...295/021
                   6000 FT MSL...302/019
                   5000 FT MSL...252/020
                   4700 FT MSL...253/019
                   4600 FT MSL...263/015
                   4000 FT MSL...240/029
                   4000 FT MSL...239/028

Amarillo Aviation Discussion
Issued at 1049 UTC Sunday, April 21, 2019

.AVIATION...
Southwest winds will pick up into the 20 to 25 knot range with
higher gusts by mid to late morning. Winds will then decrease
after sunset. A cold front will move through late tonight shifting
the winds around the north. Skies are expected to remain VFR.


* * * * * New Mexico * * * * *

KFMN 211139Z 2112/2212 10006KT P6SM OVC100
     FM211800 26012G22KT P6SM SCT100
     FM220200 27008KT P6SM SCT120
     FM220700 08006KT P6SM SKC
METAR KFMN 211153Z AUTO 07005KT 10SM BKN110 09/M02 A2992 RMK AO2 SLP095
       T00941022 10106 20083 53005
METAR KFMN 211053Z AUTO 07006KT 10SM SCT120 10/M03 A2992 RMK AO2 SLP085
       T01001028
METAR KFMN 210953Z AUTO 07004KT 10SM OVC100 09/M02 A2990 RMK AO2 SLP081
       T00941022

METAR KSKX 211156Z AUTO 00000KT 10SM CLR 01/M05 A3003 RMK AO2 SLP137
       T00061050 10056 21006 51006 FZRANO $
METAR KSKX 211056Z AUTO 10004KT 10SM CLR 01/M05 A3002 RMK AO2 SLP127
       T00061050 FZRANO $
METAR KSKX 210956Z AUTO 04005KT 10SM CLR 00/M06 A3002 RMK AO2 SLP120
       T00001056 FZRANO $

KLVS 211139Z 2112/2212 23011KT P6SM SKC
     FM211530 25015G25KT P6SM SKC
     FM211800 26022G32KT P6SM SKC
     FM220200 24009KT P6SM SCT120
     FM220600 02006KT P6SM BKN200
METAR KLVS 211153Z AUTO 22010KT 10SM CLR 07/M05 A2996 RMK AO2 SLP059
       T00721050 10122 20061 51003 $
METAR KLVS 211053Z AUTO 21009KT 10SM CLR 07/M06 A2996 RMK AO2 SLP056
       T00721056 $

METAR KRTN 211153Z AUTO 08005KT 10SM CLR 03/M02 A2991 RMK AO2 SLP063
       T00281022 10150 20028 53005
METAR KRTN 211053Z AUTO 25005KT 10SM CLR 05/M02 A2990 RMK AO2 SLP058
       T00501022
METAR KRTN 210953Z AUTO 04005KT 10SM CLR 04/M02 A2989 RMK AO2 SLP054
       T00441022

METAR KCAO 211155Z AUTO 26008KT 10SM CLR 07/M02 A2982 RMK AO2 SLP046
       T00721017 10183 20072 53005 $
METAR KCAO 211055Z AUTO 24012KT 10SM CLR 08/M02 A2982 RMK AO2 SLP041
       T00831017 $

Albuquerque (KABX) 04/21/19 12:12 UTC
Radar VAD winds      Height      Dir/Spd(kt)
                  22000 FT MSL...233/028
                  20000 FT MSL...244/036
                  19000 FT MSL...245/033
                  18000 FT MSL...252/043
                  15000 FT MSL...360/001
                  11000 FT MSL...262/029
                  10400 FT MSL...270/034
                  10000 FT MSL...267/033
                   9000 FT MSL...267/028
                   8700 FT MSL...272/030
                   8000 FT MSL...261/022
                   7000 FT MSL...249/019
                   7000 FT MSL...254/019
                   6900 FT MSL...248/017
                   6300 FT MSL...242/015

Albuquerque Aviation Discussion
Issued at 1150 UTC Sunday, April 21, 2019

.AVIATION...
12Z TAF CYCLE
West and southwest winds will be gusty today as an upper level
trough crosses the Four Corners and central Rockies. It may trigger a
few virga showers and mainly dry thunderstorms in the Sandia and
northern mountains, and adjacent highlands, this afternoon and
evening. Dry microbursts will be capable of dry microbursts gusting
up to 50 mph. The system will send a gusty back door cold front
southwestward through the eastern plains late tonight and Monday.
There will probably be areas of low clouds with MVFR and locally IFR
conditions along and behind the front across northeast and east
central areas late tonight into Monday morning.
44

* * * * * Winds and Temperatures Aloft Forecasts * * * * *

DATA BASED ON 210000Z
VALID 210600Z   FOR USE 0500-0900Z. TEMPS NEG ABV 24000
FT  3000    6000   9000    12000   18000   24000  30000  34000  39000
SLC      2610    2315+04 2014-02 2120-16 2512-29 261646 241355 222352
BCE                      2331-01 2125-17 2117-30 212246 233551 244052
LND              2710+05 2419+00 2216-16 1914-28 990046 990056 232651
RKS              2720    2415-01 2118-17 2113-29 260947 240954 232252
GJT              2414+08 2418+00 2422-17 2419-29 263145 253652 243252
FMN              2617+10 2621+01 2424-16 2540-27 255043 255451 255355
ABQ              2725+10 2524+02 2432-14 2545-27 265843 266351 266656
MBW              2624    2619+01 2016-16 2021-29 193247 212854 222250
DEN              3213+10 2908+02 2117-15 2019-28 202946 232751 232752
PUB              2720+10 2519+02 2325-15 2123-28 233243 254249 243454
ALS                      2724+01 2632-16 2637-27 265043 264950 253555
TCC      2732    2732+13 2533+05 2329-14 2642-25 275242 275351 275357
BFF      1311    1911+11 2112+02 2115-16 2218-28 222246 202753 222653
GLD      2022    1914+12 2009+04 2210-14 2223-27 203044 213253 232855
GCK      2350+18 2342+12 2236+04 2129-14 2214-26 261543 232752 253857
GAG      2145+20 2430+14 2530+06 2621-14 2420-28 252743 253551 264057
AMA      2160    2444+15 2539+06 2529-14 2736-25 273842 264150 274759
---------------------------------------------------------------------

DATA BASED ON 210000Z
VALID 211200Z   FOR USE 0900-1800Z. TEMPS NEG ABV 24000
FT  3000    6000   9000    12000   18000   24000  30000  34000  39000
SLC      9900    2011+02 2119-03 2020-17 1511-29 151147 181856 242451
BCE                      2426-03 2320-18 2518-32 263045 274047 264651
LND              9900+05 9900-02 2312-17 2507-29 990047 150755 212453
RKS              2607    2513-02 2416-18 2207-29 280647 241455 232453
GJT              2215+03 2413-03 2316-17 2222-29 211948 223052 243451
FMN              2721+07 2619-01 2429-17 2439-31 245044 256147 255753
ABQ              2724+07 2723+00 2539-15 2453-27 256742 267448 256856
MBW              2917    2818-01 2312-17 1719-29 181847 211853 222953
DEN              3409+08 9900+00 2413-16 2319-28 253345 243452 233454
PUB              2925+09 2924+01 2623-16 2537-28 244544 244651 254354
ALS                      2721+00 2530-15 2438-29 244544 244950 255254
TCC      2723    2628+10 2535+02 2339-12 2446-26 254843 265350 266157
BFF      3318    3611+09 1311+02 1917-15 1818-29 203446 203354 233453
GLD      2920    2318+10 2219+02 2118-15 2232-28 244443 244451 244556
GCK      2416+18 2522+11 2528+03 2336-14 2438-26 253944 254452 255057
GAG      2523+21 2526+13 2431+05 2135-14 2537-26 264344 264751 274957
AMA      2818    2720+11 2630+03 2438-12 2538-26 254343 254751 265857
---------------------------------------------------------------------

DATA BASED ON 210000Z
VALID 220000Z   FOR USE 1800-0500Z. TEMPS NEG ABV 24000
FT  3000    6000   9000    12000   18000   24000  30000  34000  39000
SLC      9900    2610-01 2309-05 1814-17 1421-30 122347 131555 231352
BCE                      2610-04 2422-18 2423-30 242946 244251 253551
LND              0215-04 9900-04 2413-16 2009-29 320546 990057 221955
RKS              0823    1909-02 2110-16 2008-29 161447 150957 242054
GJT              2118+05 2320-02 2317-17 2316-30 231446 252353 243052
FMN              2415+10 2416+01 2531-16 2541-28 258643 269251 266355
ABQ              2514+12 2516+03 2536-15 2663-26 267942 268351 267056
MBW              0310    3311-03 3015-17 2718-29 201945 203056 242454
DEN              3115+05 2410-02 2222-15 2007-28 051145 040654 242753
PUB              2716+08 2621+00 2525-16 2615-28 272944 275350 263753
ALS                      2420+01 2630-16 2746-29 268143 268451 265254
TCC      2520    2521+12 2523+03 2744-12 2761-25 267542 277751 266158
BFF      0225    3615+02 3519-03 3117-15 2719-27 161044 151155 232455
GLD      0116    2308+08 2117+00 2420-16 2716-29 283245 262750 253353
GCK      2406+20 2112+11 2116+02 2421-16 2530-29 274844 265048 264453
GAG      2231+20 2333+12 2334+03 2542-15 2659-27 278441 277549 275054
AMA      2424    2424+12 2425+03 2741-13 2758-25 277342 277450 276358
---------------------------------------------------------------------

This product is updated automatically at approximately 10, 30 and 50
minutes after each hour, 24 hours per day, 7 days per week.  It may
become unavailable at times due to system outages without prior notice.
Users are advised to check the time at the top of the product to ensure
that it is current.  Furthermore, content and format of the product are
subject to change without prior notice.

Comments and suggestions are welcome and should be directed to one of
the addresses or phone numbers shown at the bottom of this page.  In
order to expedite a response to comments or suggestions, be sure to
mention your interest in the hot-air balloon forecast.



USA.gov is the U.S. government's official web portal to all federal, state and local government web resources and services.